Time;durP1;ratioP1;P1;durP2;ratioP2;P2;SDS_P1;SDS_P2;PMS_P1;PMS_P2;Temp;Humidity;BMP_temperature;BMP_pressure;BME280_temperature;BME280_humidity;BME280_pressure;Samples;Min_cycle;Max_cycle;Signal;HPM_P1;HPM_P2
2023/10/13 00:01:20;;;;;;;11.50;9.73;;;;;;;;;;4996003;28;20045;-76
2023/10/13 00:03:46;;;;;;;11.20;10.00;;;;;;;;;;5000277;28;20034;-76
2023/10/13 00:06:12;;;;;;;10.40;9.32;;;;;;;;;;5001136;28;20048;-76
2023/10/13 00:08:39;;;;;;;14.95;10.40;;;;;;;;;;5000616;28;20553;-76
2023/10/13 00:11:06;;;;;;;10.48;9.50;;;;;;;;;;5002288;28;20072;-77
2023/10/13 00:13:42;;;;;;;11.32;10.20;;;;;;;;;;5004620;28;20073;-76
2023/10/13 00:16:09;;;;;;;11.48;10.23;;;;;;;;;;5001898;28;20077;-76
2023/10/13 00:18:41;;;;;;;11.20;10.05;;;;;;;;;;5006329;28;20088;-76
2023/10/13 00:23:54;;;;;;;11.52;10.32;;;;;;;;;;4998511;28;20120;-76
2023/10/13 00:26:28;;;;;;;12.77;9.75;;;;;;;;;;4996738;28;20270;-76
2023/10/13 00:31:38;;;;;;;14.88;10.23;;;;;;;;;;5001786;28;20041;-76
2023/10/13 00:37:09;;;;;;;12.00;10.85;;;;;;;;;;4998908;28;20389;-76
2023/10/13 00:39:44;;;;;;;11.98;10.65;;;;;;;;;;5005564;28;20038;-76
2023/10/13 00:42:18;;;;;;;11.35;10.13;;;;;;;;;;5001376;28;20041;-76
2023/10/13 00:44:48;;;;;;;14.68;10.07;;;;;;;;;;4998741;28;20062;-76
2023/10/13 00:47:22;;;;;;;10.85;10.05;;;;;;;;;;5001248;28;20488;-76
2023/10/13 00:49:49;;;;;;;11.27;9.70;;;;;;;;;;5003498;28;20033;-76
2023/10/13 00:52:18;;;;;;;10.55;9.63;;;;;;;;;;5014621;28;20125;-76
2023/10/13 00:54:46;;;;;;;11.38;10.20;;;;;;;;;;5000850;28;20110;-76
2023/10/13 00:57:28;;;;;;;11.73;10.35;;;;;;;;;;5003350;28;20045;-76
2023/10/13 00:59:57;;;;;;;13.20;10.00;;;;;;;;;;5015249;28;20046;-76
2023/10/13 01:05:02;;;;;;;11.23;10.23;;;;;;;;;;5002241;28;20044;-76
2023/10/13 01:07:29;;;;;;;11.55;9.77;;;;;;;;;;5004070;28;20055;-76
2023/10/13 01:09:55;;;;;;;11.45;10.23;;;;;;;;;;5001682;28;20034;-76
2023/10/13 01:12:23;;;;;;;11.65;10.05;;;;;;;;;;5003293;28;20034;-76
2023/10/13 01:14:49;;;;;;;10.80;9.75;;;;;;;;;;5001653;28;20060;-76
2023/10/13 01:17:14;;;;;;;10.88;9.77;;;;;;;;;;5002327;28;20642;-76
2023/10/13 01:19:45;;;;;;;12.50;9.73;;;;;;;;;;5012550;28;20042;-76
2023/10/13 01:22:11;;;;;;;10.63;9.73;;;;;;;;;;4998696;28;20042;-76
2023/10/13 01:24:39;;;;;;;14.13;10.20;;;;;;;;;;5002939;28;20042;-76
2023/10/13 01:29:36;;;;;;;10.68;9.68;;;;;;;;;;5002131;28;20038;-76
2023/10/13 01:32:01;;;;;;;11.90;9.45;;;;;;;;;;5003984;28;20038;-76
2023/10/13 01:34:27;;;;;;;16.05;9.38;;;;;;;;;;5002798;28;20054;-76
2023/10/13 01:36:54;;;;;;;12.48;9.50;;;;;;;;;;5001976;28;20720;-76
2023/10/13 01:39:28;;;;;;;10.95;9.40;;;;;;;;;;5001438;28;20038;-76
2023/10/13 01:41:55;;;;;;;9.75;8.90;;;;;;;;;;4997622;28;20511;-76
2023/10/13 01:44:29;;;;;;;10.85;9.80;;;;;;;;;;5001654;28;20117;-76
2023/10/13 01:46:54;;;;;;;11.60;9.30;;;;;;;;;;4966981;28;20029;-75
2023/10/13 01:49:22;;;;;;;10.30;9.05;;;;;;;;;;5002571;28;20089;-78
2023/10/13 01:51:52;;;;;;;12.00;9.38;;;;;;;;;;4988098;28;20030;-78
2023/10/13 01:54:18;;;;;;;10.32;9.40;;;;;;;;;;4993918;28;21061;-77
2023/10/13 01:56:44;;;;;;;10.80;9.80;;;;;;;;;;5001094;28;20088;-80
2023/10/13 01:59:11;;;;;;;10.48;9.50;;;;;;;;;;4997751;28;20452;-79
2023/10/13 02:01:37;;;;;;;13.43;9.05;;;;;;;;;;5006458;28;20241;-78
2023/10/13 02:04:03;;;;;;;10.43;9.38;;;;;;;;;;5001062;28;20045;-78
2023/10/13 02:06:33;;;;;;;9.80;8.90;;;;;;;;;;5003562;28;20041;-79
2023/10/13 02:09:12;;;;;;;9.90;9.00;;;;;;;;;;4996957;28;20100;-79
2023/10/13 02:11:42;;;;;;;;;;;;;;;;;;4998236;28;20034;-78
2023/10/13 02:14:12;;;;;;;12.77;9.27;;;;;;;;;;4994949;28;19913;-78
2023/10/13 02:16:39;;;;;;;10.55;9.68;;;;;;;;;;4999888;28;20463;-77
2023/10/13 02:19:08;;;;;;;9.70;8.90;;;;;;;;;;4999626;28;20121;-78
2023/10/13 02:21:39;;;;;;;10.07;9.15;;;;;;;;;;5000389;28;20050;-78
2023/10/13 02:24:12;;;;;;;9.95;9.20;;;;;;;;;;4997432;28;20132;-77
2023/10/13 02:26:40;;;;;;;10.30;9.30;;;;;;;;;;4998484;28;20057;-77
2023/10/13 02:29:12;;;;;;;10.00;9.02;;;;;;;;;;4999555;28;20719;-77
2023/10/13 02:31:40;;;;;;;11.63;9.68;;;;;;;;;;5008587;28;20045;-78
2023/10/13 02:34:09;;;;;;;12.50;9.27;;;;;;;;;;4995499;28;20049;-78
2023/10/13 02:36:46;;;;;;;11.95;10.70;;;;;;;;;;5012304;28;20542;-78
2023/10/13 02:39:13;;;;;;;11.10;9.40;;;;;;;;;;5001229;28;20077;-77
2023/10/13 02:41:41;;;;;;;17.02;10.13;;;;;;;;;;4995393;28;20042;-78
2023/10/13 02:44:08;;;;;;;10.35;9.27;;;;;;;;;;5015124;28;20080;-79
2023/10/13 02:46:39;;;;;;;10.43;9.43;;;;;;;;;;4994840;28;20050;-78
2023/10/13 02:49:13;;;;;;;13.15;10.32;;;;;;;;;;5013994;28;20422;-77
2023/10/13 02:51:41;;;;;;;9.93;9.13;;;;;;;;;;5005631;28;20080;-79
2023/10/13 02:54:17;;;;;;;11.27;10.20;;;;;;;;;;4996823;28;20139;-79
2023/10/13 02:56:49;;;;;;;10.48;9.30;;;;;;;;;;5010343;28;20133;-77
2023/10/13 02:59:15;;;;;;;10.98;9.73;;;;;;;;;;4998033;28;20046;-79
2023/10/13 03:01:41;;;;;;;10.95;9.85;;;;;;;;;;4991520;28;20081;-77
2023/10/13 03:04:08;;;;;;;15.13;9.75;;;;;;;;;;4997592;28;20036;-77
2023/10/13 03:06:35;;;;;;;11.23;9.75;;;;;;;;;;4999034;28;20121;-78
2023/10/13 03:09:17;;;;;;;11.35;9.98;;;;;;;;;;4997464;28;20093;-78
2023/10/13 03:11:49;;;;;;;11.20;10.05;;;;;;;;;;4993377;28;20102;-77
2023/10/13 03:14:32;;;;;;;11.80;10.63;;;;;;;;;;4993704;28;20038;-77
2023/10/13 03:17:33;;;;;;;14.18;10.20;;;;;;;;;;4997660;28;20423;-77
2023/10/13 03:19:51;;;;;;;11.10;10.00;;;;;;;;;;4996048;28;20124;-77
2023/10/13 03:22:18;;;;;;;11.25;10.05;;;;;;;;;;5002659;28;20033;-79
2023/10/13 03:24:47;;;;;;;11.07;10.15;;;;;;;;;;5000737;28;20060;-78
2023/10/13 03:27:17;;;;;;;;;;;;;;;;;;4986369;28;20105;-78
2023/10/13 03:29:45;;;;;;;11.55;10.43;;;;;;;;;;5000719;28;19960;-78
2023/10/13 03:32:15;;;;;;;14.15;11.02;;;;;;;;;;5009396;28;20087;-77
2023/10/13 03:35:11;;;;;;;11.80;10.07;;;;;;;;;;4999315;28;20636;-77
2023/10/13 03:37:41;;;;;;;11.55;10.45;;;;;;;;;;4993309;28;20563;-79
2023/10/13 03:45:42;;;;;;;11.90;10.77;;;;;;;;;;4991466;28;20030;-75
2023/10/13 03:51:06;;;;;;;11.82;10.82;;;;;;;;;;4993511;28;20073;-79
2023/10/13 03:53:38;;;;;;;12.85;10.40;;;;;;;;;;4993342;28;20114;-78
2023/10/13 03:56:14;;;;;;;12.80;11.23;;;;;;;;;;4997756;28;20037;-79
2023/10/13 03:58:45;;;;;;;13.98;11.00;;;;;;;;;;4991499;28;20092;-78
2023/10/13 04:01:15;;;;;;;11.93;10.93;;;;;;;;;;5006515;28;20121;-78
2023/10/13 04:03:56;;;;;;;15.90;11.65;;;;;;;;;;4994739;28;20030;-78
2023/10/13 04:17:27;;;;;;;13.18;10.85;;;;;;;;;;5001207;28;20034;-79
2023/10/13 04:28:15;;;;;;;13.25;10.98;;;;;;;;;;5003957;28;20590;-77
2023/10/13 04:36:14;;;;;;;12.23;11.07;;;;;;;;;;5000010;28;20044;-77
2023/10/13 04:38:56;;;;;;;12.35;11.13;;;;;;;;;;4997790;28;20100;-77
2023/10/13 04:41:42;;;;;;;12.50;11.30;;;;;;;;;;4998720;28;20026;-77
2023/10/13 04:49:28;;;;;;;13.55;11.05;;;;;;;;;;5000464;28;20422;-78
2023/10/13 04:51:58;;;;;;;12.75;11.55;;;;;;;;;;5004642;28;20384;-76
2023/10/13 04:54:26;;;;;;;12.57;11.32;;;;;;;;;;5008009;28;20053;-76
2023/10/13 04:59:37;;;;;;;12.20;11.20;;;;;;;;;;4999389;28;20643;-77
2023/10/13 05:49:26;;;;;;;13.07;11.73;;;;;;;;;;5003744;28;20046;-77
2023/10/13 06:29:55;;;;;;;13.25;11.85;;;;;;;;;;5001452;28;20041;-78
2023/10/13 06:32:25;;;;;;;13.48;12.13;;;;;;;;;;5003199;28;20065;-76
2023/10/13 06:34:57;;;;;;;13.57;12.23;;;;;;;;;;4980574;28;20054;-77
2023/10/13 06:37:26;;;;;;;18.90;12.75;;;;;;;;;;5003299;28;20635;-77
2023/10/13 06:39:56;;;;;;;14.90;13.40;;;;;;;;;;4998930;28;20037;-77
2023/10/13 06:42:28;;;;;;;13.57;12.35;;;;;;;;;;5002506;28;20042;-77
2023/10/13 06:45:00;;;;;;;12.93;11.68;;;;;;;;;;5001375;28;20045;-78
2023/10/13 06:47:27;;;;;;;13.80;11.55;;;;;;;;;;5001490;28;20644;-77
2023/10/13 06:49:54;;;;;;;13.05;11.85;;;;;;;;;;5000239;28;20104;-78
2023/10/13 06:52:22;;;;;;;13.20;12.18;;;;;;;;;;4999143;28;20069;-78
2023/10/13 06:54:52;;;;;;;13.27;11.98;;;;;;;;;;5001904;28;20037;-78
2023/10/13 06:57:21;;;;;;;12.85;11.50;;;;;;;;;;5002835;28;20045;-78
2023/10/13 06:59:48;;;;;;;12.73;11.38;;;;;;;;;;5002516;28;20503;-78
2023/10/13 07:02:22;;;;;;;16.15;10.88;;;;;;;;;;5002534;28;20415;-76
2023/10/13 07:04:48;;;;;;;12.35;10.80;;;;;;;;;;4999510;28;20030;-78
2023/10/13 07:07:15;;;;;;;18.63;11.55;;;;;;;;;;5002727;28;20025;-78
2023/10/13 07:10:00;;;;;;;11.85;10.63;;;;;;;;;;4987833;28;20050;-78
2023/10/13 07:12:33;;;;;;;11.13;10.20;;;;;;;;;;5001031;28;20061;-77
2023/10/13 07:15:10;;;;;;;12.13;10.75;;;;;;;;;;5001238;28;20057;-77
2023/10/13 07:17:40;;;;;;;13.65;10.95;;;;;;;;;;5002524;28;20096;-78
2023/10/13 07:20:15;;;;;;;;;;;;;;;;;;5002324;28;20089;-77
2023/10/13 07:22:45;;;;;;;15.63;11.05;;;;;;;;;;4982433;28;19921;-76
2023/10/13 07:25:18;;;;;;;12.13;11.02;;;;;;;;;;5003318;28;20033;-78
2023/10/13 07:27:43;;;;;;;11.77;10.68;;;;;;;;;;5001164;28;20373;-77
2023/10/13 07:32:45;;;;;;;11.70;10.70;;;;;;;;;;5000746;28;20030;-78
2023/10/13 07:35:12;;;;;;;13.18;11.77;;;;;;;;;;4999682;28;20486;-78
2023/10/13 07:37:41;;;;;;;12.23;11.10;;;;;;;;;;4999056;28;20092;-78
2023/10/13 07:40:21;;;;;;;13.27;11.65;;;;;;;;;;5002243;28;20104;-78
2023/10/13 07:42:47;;;;;;;12.60;10.40;;;;;;;;;;4998741;28;20041;-79
2023/10/13 07:45:13;;;;;;;13.48;11.02;;;;;;;;;;5002158;28;20096;-78
2023/10/13 07:47:39;;;;;;;24.25;12.00;;;;;;;;;;4999186;28;20041;-78
2023/10/13 07:50:06;;;;;;;15.45;11.73;;;;;;;;;;5002028;28;20049;-77
2023/10/13 07:52:54;;;;;;;12.15;10.93;;;;;;;;;;5001618;28;20120;-78
2023/10/13 07:55:21;;;;;;;12.55;11.40;;;;;;;;;;4996089;28;20041;-78
2023/10/13 07:57:56;;;;;;;12.73;10.65;;;;;;;;;;5001854;28;20042;-78
2023/10/13 08:05:57;;;;;;;17.77;11.27;;;;;;;;;;4998089;28;20038;-79
2023/10/13 08:08:25;;;;;;;16.83;11.10;;;;;;;;;;4998777;28;20034;-78
2023/10/13 08:11:02;;;;;;;12.82;11.10;;;;;;;;;;5001527;28;20120;-78
2023/10/13 08:13:28;;;;;;;13.50;11.05;;;;;;;;;;5001241;28;20048;-78
2023/10/13 08:15:54;;;;;;;12.25;10.57;;;;;;;;;;5001662;28;20120;-78
2023/10/13 08:18:32;;;;;;;12.35;10.48;;;;;;;;;;5002215;28;20140;-77
2023/10/13 08:21:03;;;;;;;11.98;10.77;;;;;;;;;;4998912;28;20033;-77
2023/10/13 08:45:07;;;;;;;11.23;9.68;;;;;;;;;;4999755;28;20042;-78
2023/10/13 08:47:36;;;;;;;13.63;8.85;;;;;;;;;;5001415;28;20540;-77
2023/10/13 08:50:47;;;;;;;14.48;10.02;;;;;;;;;;4999216;28;20076;-78
2023/10/13 08:52:58;;;;;;;14.45;9.20;;;;;;;;;;5001407;28;20505;-78
2023/10/13 08:55:48;;;;;;;10.05;8.65;;;;;;;;;;5000145;28;20033;-78
2023/10/13 08:58:14;;;;;;;15.80;8.60;;;;;;;;;;5000423;28;20034;-77
2023/10/13 09:01:11;;;;;;;10.30;9.30;;;;;;;;;;5002705;28;20419;-77
2023/10/13 09:03:39;;;;;;;10.25;8.20;;;;;;;;;;5003228;28;20562;-78
2023/10/13 09:06:06;;;;;;;9.02;8.10;;;;;;;;;;5005265;28;20057;-77
2023/10/13 09:08:44;;;;;;;10.45;8.27;;;;;;;;;;5000145;28;20041;-79
2023/10/13 09:11:13;;;;;;;12.18;8.68;;;;;;;;;;5008020;28;20038;-78
2023/10/13 09:13:45;;;;;;;10.35;8.20;;;;;;;;;;5019015;28;20041;-78
2023/10/13 09:16:17;;;;;;;11.35;8.57;;;;;;;;;;5002248;28;20067;-76
2023/10/13 09:18:46;;;;;;;13.98;8.27;;;;;;;;;;5003852;28;20076;-79
2023/10/13 09:21:29;;;;;;;8.85;7.80;;;;;;;;;;5005022;28;20033;-78
2023/10/13 09:24:17;;;;;;;15.32;8.15;;;;;;;;;;5012358;28;20117;-78
2023/10/13 09:26:53;;;;;;;15.85;8.90;;;;;;;;;;5004714;28;20041;-77
2023/10/13 09:29:19;;;;;;;10.52;8.00;;;;;;;;;;5001208;28;20042;-74
2023/10/13 09:32:00;;;;;;;12.13;8.88;;;;;;;;;;5006583;28;20124;-77
2023/10/13 09:34:29;;;;;;;10.63;8.75;;;;;;;;;;5006670;28;20037;-76
2023/10/13 09:36:58;;;;;;;13.77;8.82;;;;;;;;;;5004663;28;20030;-78
2023/10/13 09:39:35;;;;;;;10.77;8.52;;;;;;;;;;5003533;28;20058;-78
2023/10/13 09:42:03;;;;;;;13.07;8.77;;;;;;;;;;5018627;28;20040;-80
2023/10/13 09:44:31;;;;;;;11.27;7.75;;;;;;;;;;4996669;28;20531;-78
2023/10/13 09:47:19;;;;;;;9.07;8.10;;;;;;;;;;5009612;28;20026;-77
2023/10/13 09:49:45;;;;;;;12.23;8.40;;;;;;;;;;5002205;28;20050;-81
2023/10/13 09:52:37;;;;;;;10.05;7.80;;;;;;;;;;5006250;28;20081;-78
2023/10/13 09:55:32;;;;;;;17.05;8.95;;;;;;;;;;5001225;28;20054;-78
2023/10/13 09:58:10;;;;;;;14.27;8.52;;;;;;;;;;5003318;28;20391;-79
2023/10/13 10:00:55;;;;;;;11.00;8.45;;;;;;;;;;5005724;28;20065;-79
2023/10/13 10:03:39;;;;;;;9.40;8.18;;;;;;;;;;5000293;28;20826;-77
2023/10/13 10:06:06;;;;;;;12.75;8.27;;;;;;;;;;5003667;28;20223;-78
2023/10/13 10:08:35;;;;;;;10.63;7.95;;;;;;;;;;5005772;28;20047;-77
2023/10/13 10:11:32;;;;;;;8.90;8.15;;;;;;;;;;4991479;28;20046;-76
2023/10/13 10:14:07;;;;;;;9.38;7.85;;;;;;;;;;4999679;28;20443;-76
2023/10/13 10:16:54;;;;;;;11.82;7.80;;;;;;;;;;5001330;28;20041;-76
2023/10/13 10:19:20;;;;;;;17.08;7.85;;;;;;;;;;5011306;28;20057;-77
2023/10/13 10:21:46;;;;;;;12.82;7.85;;;;;;;;;;5000464;28;20061;-79
2023/10/13 10:24:24;;;;;;;12.40;8.25;;;;;;;;;;4995620;28;20033;-78
2023/10/13 10:26:56;;;;;;;15.30;8.10;;;;;;;;;;4999450;28;20037;-77
2023/10/13 10:29:22;;;;;;;9.63;7.70;;;;;;;;;;4999863;28;20061;-77
2023/10/13 10:31:48;;;;;;;13.57;8.20;;;;;;;;;;4998509;28;20038;-77
2023/10/13 10:34:18;;;;;;;11.00;7.53;;;;;;;;;;5001244;28;20092;-77
2023/10/13 10:36:53;;;;;;;13.10;7.68;;;;;;;;;;5001694;28;20034;-77
2023/10/13 10:39:19;;;;;;;10.02;8.02;;;;;;;;;;4998939;28;20029;-78
2023/10/13 10:41:45;;;;;;;11.10;8.18;;;;;;;;;;4999508;28;20076;-78
2023/10/13 10:44:33;;;;;;;12.57;8.50;;;;;;;;;;5000732;28;20057;-77
2023/10/13 10:47:19;;;;;;;13.50;7.70;;;;;;;;;;5000787;28;20104;-78
2023/10/13 10:49:47;;;;;;;13.70;7.72;;;;;;;;;;4997797;28;20033;-78
2023/10/13 10:52:20;;;;;;;10.32;7.68;;;;;;;;;;4996713;28;20471;-78
2023/10/13 10:54:51;;;;;;;13.43;7.68;;;;;;;;;;4997807;28;20937;-77
2023/10/13 10:57:17;;;;;;;13.20;7.72;;;;;;;;;;4999318;28;20029;-77
2023/10/13 10:59:44;;;;;;;10.73;8.27;;;;;;;;;;4998120;28;20392;-77
2023/10/13 11:02:15;;;;;;;12.23;7.50;;;;;;;;;;4999284;28;20066;-79
2023/10/13 11:04:50;;;;;;;9.18;7.97;;;;;;;;;;5000435;28;20392;-78
2023/10/13 11:07:23;;;;;;;12.70;8.30;;;;;;;;;;4992053;28;20037;-77
2023/10/13 11:09:52;;;;;;;9.13;7.00;;;;;;;;;;4996383;28;20145;-78
2023/10/13 11:12:26;;;;;;;14.52;7.75;;;;;;;;;;4998541;28;20427;-77
2023/10/13 11:15:22;;;;;;;14.07;8.50;;;;;;;;;;4998038;28;20747;-77
2023/10/13 11:17:54;;;;;;;10.38;8.40;;;;;;;;;;4998826;28;20034;-79
2023/10/13 11:20:43;;;;;;;9.48;7.95;;;;;;;;;;4999644;28;20033;-78
2023/10/13 11:23:13;;;;;;;13.30;8.23;;;;;;;;;;4999845;28;20034;-77
2023/10/13 11:25:39;;;;;;;11.55;8.05;;;;;;;;;;4998598;28;20049;-78
2023/10/13 11:28:20;;;;;;;9.65;8.63;;;;;;;;;;4997888;28;20042;-77
2023/10/13 11:30:50;;;;;;;12.73;8.52;;;;;;;;;;4998390;28;20045;-78
2023/10/13 11:33:29;;;;;;;17.15;8.07;;;;;;;;;;4999004;28;20042;-77
2023/10/13 11:35:56;;;;;;;9.73;8.23;;;;;;;;;;4996905;28;20037;-78
2023/10/13 11:38:27;;;;;;;9.20;7.97;;;;;;;;;;4994102;28;20045;-78
2023/10/13 11:48:38;;;;;;;10.10;8.32;;;;;;;;;;4998778;28;20033;-76
2023/10/13 11:51:08;;;;;;;14.23;8.57;;;;;;;;;;4997226;28;20034;-77
2023/10/13 11:53:34;;;;;;;10.35;8.25;;;;;;;;;;5001191;28;20038;-76
2023/10/13 11:56:09;;;;;;;9.48;8.65;;;;;;;;;;4997055;28;20042;-78
2023/10/13 11:58:35;;;;;;;10.45;8.70;;;;;;;;;;4996015;28;20036;-77
2023/10/13 12:09:31;;;;;;;9.68;8.50;;;;;;;;;;4990822;28;20384;-77
2023/10/13 12:12:00;;;;;;;9.40;8.50;;;;;;;;;;4981663;28;20045;-78
2023/10/13 12:14:37;;;;;;;13.80;8.73;;;;;;;;;;4978986;28;20046;-78
2023/10/13 12:17:04;;;;;;;9.63;8.55;;;;;;;;;;4996078;28;20034;-80
2023/10/13 12:19:30;;;;;;;15.88;8.65;;;;;;;;;;4993231;28;20046;-79
2023/10/13 12:21:57;;;;;;;13.52;8.98;;;;;;;;;;4996993;28;20030;-80
2023/10/13 12:27:00;;;;;;;14.88;9.30;;;;;;;;;;5002791;28;20030;-78
2023/10/13 12:29:29;;;;;;;12.30;9.27;;;;;;;;;;4997003;28;20665;-78
2023/10/13 12:32:09;;;;;;;12.10;8.57;;;;;;;;;;4994591;28;20046;-79
2023/10/13 12:38:05;;;;;;;11.05;9.07;;;;;;;;;;4996979;28;20045;-78
2023/10/13 12:51:40;;;;;;;9.77;8.93;;;;;;;;;;5002022;28;20495;-76
2023/10/13 12:54:14;;;;;;;11.02;9.85;;;;;;;;;;5000180;28;20038;-76
2023/10/13 12:56:43;;;;;;;10.75;9.77;;;;;;;;;;4999328;28;20857;-77
2023/10/13 12:59:13;;;;;;;17.00;9.40;;;;;;;;;;5005429;28;20034;-76
2023/10/13 13:01:42;;;;;;;10.95;9.57;;;;;;;;;;5002992;28;20515;-77
2023/10/13 13:04:18;;;;;;;10.48;9.55;;;;;;;;;;5005991;28;20038;-77
2023/10/13 13:06:43;;;;;;;10.68;9.77;;;;;;;;;;5004778;28;20069;-78
2023/10/13 13:09:09;;;;;;;13.27;9.60;;;;;;;;;;5006157;28;20066;-78
2023/10/13 13:11:42;;;;;;;10.32;9.35;;;;;;;;;;5002285;28;20431;-79
2023/10/13 13:14:08;;;;;;;13.52;9.73;;;;;;;;;;4999245;28;20112;-78
2023/10/13 13:16:38;;;;;;;10.65;9.60;;;;;;;;;;4999571;28;20241;-78
2023/10/13 13:19:14;;;;;;;15.52;9.60;;;;;;;;;;4999087;28;20042;-77
2023/10/13 13:21:39;;;;;;;11.75;9.32;;;;;;;;;;5000113;28;20042;-77
2023/10/13 13:24:15;;;;;;;13.68;9.50;;;;;;;;;;5000652;28;20048;-78
2023/10/13 13:26:40;;;;;;;9.60;8.82;;;;;;;;;;5001906;28;20491;-78
2023/10/13 13:29:09;;;;;;;9.82;8.73;;;;;;;;;;5001271;28;20045;-79
2023/10/13 13:31:40;;;;;;;10.20;8.10;;;;;;;;;;5001459;28;20034;-77
2023/10/13 13:34:10;;;;;;;10.20;9.20;;;;;;;;;;4993694;28;20042;-76
2023/10/13 13:36:36;;;;;;;12.88;8.23;;;;;;;;;;5002580;28;20064;-77
2023/10/13 13:39:02;;;;;;;9.52;8.52;;;;;;;;;;5001519;28;20486;-78
2023/10/13 13:41:28;;;;;;;9.57;8.68;;;;;;;;;;5002290;28;20508;-78
2023/10/13 13:43:56;;;;;;;13.30;8.57;;;;;;;;;;4997962;28;20499;-76
2023/10/13 13:46:32;;;;;;;12.60;9.13;;;;;;;;;;5004782;28;20034;-77
2023/10/13 13:49:00;;;;;;;11.70;9.13;;;;;;;;;;5001291;28;20057;-77
2023/10/13 13:51:30;;;;;;;10.73;9.07;;;;;;;;;;5008358;28;20492;-77
2023/10/13 13:53:57;;;;;;;12.55;9.68;;;;;;;;;;4998890;28;20038;-77
2023/10/13 13:56:28;;;;;;;9.93;8.93;;;;;;;;;;4994292;28;20133;-78
2023/10/13 13:58:58;;;;;;;10.25;9.00;;;;;;;;;;5003180;28;20050;-76
2023/10/13 14:01:27;;;;;;;11.45;9.40;;;;;;;;;;5004290;28;20041;-77
2023/10/13 14:03:56;;;;;;;12.10;8.77;;;;;;;;;;4993503;28;20120;-76
2023/10/13 14:06:29;;;;;;;12.80;8.55;;;;;;;;;;4999391;28;20048;-76
2023/10/13 14:08:56;;;;;;;10.07;8.32;;;;;;;;;;5003098;28;20679;-76
2023/10/13 14:16:51;;;;;;;11.82;9.00;;;;;;;;;;4999729;28;20435;-77
2023/10/13 14:19:26;;;;;;;10.43;9.43;;;;;;;;;;4999457;28;20455;-77
2023/10/13 14:21:53;;;;;;;10.30;8.93;;;;;;;;;;5000024;28;20123;-76
2023/10/13 14:24:27;;;;;;;10.15;9.10;;;;;;;;;;4995526;28;20033;-77
2023/10/13 14:26:56;;;;;;;9.68;8.88;;;;;;;;;;5007554;28;20038;-76
2023/10/13 14:29:26;;;;;;;9.98;8.85;;;;;;;;;;4993626;28;20049;-76
2023/10/13 14:31:52;;;;;;;11.00;9.27;;;;;;;;;;5001894;28;20045;-76
2023/10/13 14:34:17;;;;;;;10.27;9.27;;;;;;;;;;4998593;28;20033;-76
2023/10/13 14:36:48;;;;;;;10.50;8.98;;;;;;;;;;5000568;28;20088;-75
2023/10/13 14:39:14;;;;;;;9.68;8.65;;;;;;;;;;5003601;28;20061;-76
2023/10/13 14:41:40;;;;;;;9.93;9.02;;;;;;;;;;4998023;28;20045;-75
2023/10/13 14:44:07;;;;;;;10.07;9.15;;;;;;;;;;4995413;28;20038;-77
2023/10/13 14:46:36;;;;;;;9.73;8.93;;;;;;;;;;4996597;28;20678;-77
2023/10/13 14:49:02;;;;;;;10.73;8.68;;;;;;;;;;4998112;28;20086;-77
2023/10/13 14:51:29;;;;;;;17.27;9.27;;;;;;;;;;5000110;28;20034;-76
2023/10/13 14:53:59;;;;;;;14.77;8.75;;;;;;;;;;4998596;28;20056;-76
2023/10/13 14:56:26;;;;;;;10.30;8.93;;;;;;;;;;4989112;28;20113;-77
2023/10/13 14:58:53;;;;;;;8.98;8.30;;;;;;;;;;4989718;28;20058;-76
2023/10/13 15:01:22;;;;;;;9.32;8.40;;;;;;;;;;4998481;28;20033;-77
2023/10/13 15:03:49;;;;;;;8.57;7.75;;;;;;;;;;4997262;28;20042;-76
2023/10/13 15:06:29;;;;;;;9.77;8.00;;;;;;;;;;5000658;28;20258;-76
2023/10/13 15:08:58;;;;;;;10.35;9.35;;;;;;;;;;5013952;28;20572;-77
2023/10/13 15:11:45;;;;;;;9.18;8.48;;;;;;;;;;4995079;28;20048;-76
2023/10/13 15:14:13;;;;;;;11.40;9.38;;;;;;;;;;4997021;28;20491;-76
2023/10/13 15:16:38;;;;;;;10.20;9.02;;;;;;;;;;4996284;28;20057;-77
2023/10/13 15:19:06;;;;;;;9.68;8.85;;;;;;;;;;4983773;28;20046;-76
2023/10/13 15:21:35;;;;;;;10.37;8.83;;;;;;;;;;5000417;28;20152;-76
2023/10/13 15:24:13;;;;;;;10.02;9.20;;;;;;;;;;4999462;28;20699;-76
2023/10/13 15:27:01;;;;;;;9.93;9.02;;;;;;;;;;4998220;28;20532;-76
2023/10/13 15:29:35;;;;;;;13.75;8.93;;;;;;;;;;4994771;28;20446;-76
2023/10/13 15:34:52;;;;;;;10.23;9.03;;;;;;;;;;4998779;28;20088;-75
2023/10/13 15:37:25;;;;;;;9.93;9.00;;;;;;;;;;5001853;28;20300;-79
2023/10/13 15:39:59;;;;;;;10.82;9.07;;;;;;;;;;4998260;28;20033;-75
2023/10/13 15:42:25;;;;;;;9.80;9.07;;;;;;;;;;5002363;28;20073;-75
2023/10/13 15:44:51;;;;;;;9.07;8.38;;;;;;;;;;4997157;28;20034;-77
2023/10/13 15:47:20;;;;;;;9.00;8.20;;;;;;;;;;4999719;28;20042;-76
2023/10/13 15:49:49;;;;;;;13.30;9.02;;;;;;;;;;5009139;28;20042;-77
2023/10/13 15:52:15;;;;;;;9.35;8.45;;;;;;;;;;4982025;28;20036;-76
2023/10/13 15:54:41;;;;;;;9.73;8.75;;;;;;;;;;5003262;28;20108;-76
2023/10/13 15:57:11;;;;;;;10.07;9.07;;;;;;;;;;4998356;28;20117;-76
2023/10/13 15:59:38;;;;;;;9.95;8.98;;;;;;;;;;4988296;28;20488;-77
2023/10/13 16:02:07;;;;;;;9.70;8.88;;;;;;;;;;4992567;28;23045;-75
2023/10/13 16:04:33;;;;;;;10.07;9.20;;;;;;;;;;4987090;28;20176;-75
2023/10/13 16:06:59;;;;;;;10.15;9.10;;;;;;;;;;4990996;28;20117;-76
2023/10/13 16:09:25;;;;;;;12.20;9.60;;;;;;;;;;4999621;28;20038;-75
2023/10/13 16:11:52;;;;;;;13.40;9.70;;;;;;;;;;5002803;28;20049;-77
2023/10/13 16:14:21;;;;;;;10.18;9.35;;;;;;;;;;5000958;28;20121;-75
2023/10/13 16:16:48;;;;;;;10.48;9.02;;;;;;;;;;5001451;28;20036;-75
2023/10/13 16:19:17;;;;;;;13.75;9.38;;;;;;;;;;5003131;28;20487;-75
2023/10/13 16:21:45;;;;;;;11.88;9.40;;;;;;;;;;4998002;28;20052;-76
2023/10/13 16:24:10;;;;;;;10.35;9.52;;;;;;;;;;5001817;28;20471;-75
2023/10/13 16:26:37;;;;;;;10.55;9.30;;;;;;;;;;5000851;28;20504;-75
2023/10/13 16:29:03;;;;;;;10.27;9.25;;;;;;;;;;4997806;28;20033;-75
2023/10/13 16:31:28;;;;;;;10.70;9.15;;;;;;;;;;4997433;28;20698;-74
2023/10/13 16:33:54;;;;;;;10.38;9.65;;;;;;;;;;4997272;28;22642;-74
2023/10/13 16:40:51;;;;;;;10.23;9.32;;;;;;;;;;4989435;28;20072;-75
2023/10/13 16:43:18;;;;;;;10.63;9.43;;;;;;;;;;4985188;28;20116;-74
2023/10/13 16:45:44;;;;;;;11.40;9.57;;;;;;;;;;5007596;28;20780;-74
2023/10/13 16:48:14;;;;;;;9.95;9.00;;;;;;;;;;5009023;28;20045;-75
2023/10/13 16:50:41;;;;;;;;;;;;;;;;;;4995733;28;20460;-74
2023/10/13 16:53:08;;;;;;;10.43;9.43;;;;;;;;;;4990671;28;20410;-75
2023/10/13 16:55:33;;;;;;;10.15;9.00;;;;;;;;;;4994931;28;20045;-74
2023/10/13 16:57:59;;;;;;;10.40;9.32;;;;;;;;;;5000167;28;20045;-74
2023/10/13 17:00:26;;;;;;;11.90;9.57;;;;;;;;;;4995133;28;20046;-74
2023/10/13 17:02:56;;;;;;;11.73;9.30;;;;;;;;;;4994416;28;20041;-76
2023/10/13 17:05:27;;;;;;;11.77;9.77;;;;;;;;;;4998076;28;20412;-75
2023/10/13 17:07:53;;;;;;;10.45;9.45;;;;;;;;;;4993242;28;20116;-75
2023/10/13 17:10:19;;;;;;;10.80;9.60;;;;;;;;;;4989969;28;20117;-75
2023/10/13 17:12:45;;;;;;;11.27;9.57;;;;;;;;;;4998238;28;20184;-75
2023/10/13 17:15:19;;;;;;;10.48;9.38;;;;;;;;;;4989786;28;20057;-75
2023/10/13 17:17:49;;;;;;;10.32;9.18;;;;;;;;;;4993152;28;20093;-74
2023/10/13 17:20:17;;;;;;;11.02;9.40;;;;;;;;;;4993109;28;20061;-74
2023/10/13 17:22:44;;;;;;;10.30;9.47;;;;;;;;;;4995621;28;20095;-75
2023/10/13 17:25:12;;;;;;;10.00;9.20;;;;;;;;;;4999017;28;20355;-74
2023/10/13 17:27:42;;;;;;;10.32;8.95;;;;;;;;;;5004514;28;20458;-74
2023/10/13 17:30:09;;;;;;;10.68;9.10;;;;;;;;;;4990960;28;20046;-75
2023/10/13 17:32:38;;;;;;;9.35;8.60;;;;;;;;;;5005114;28;20069;-74
2023/10/13 17:35:05;;;;;;;9.75;8.98;;;;;;;;;;5001120;28;21024;-76
2023/10/13 17:37:36;;;;;;;10.98;9.35;;;;;;;;;;4993232;28;20113;-75
2023/10/13 17:40:07;;;;;;;10.57;9.35;;;;;;;;;;4998940;28;20045;-73
2023/10/13 17:42:35;;;;;;;10.13;9.23;;;;;;;;;;4991088;28;20069;-75
2023/10/13 17:45:02;;;;;;;10.00;9.05;;;;;;;;;;4991407;28;20038;-74
2023/10/13 17:47:27;;;;;;;12.13;9.55;;;;;;;;;;4992449;28;20410;-76
2023/10/13 17:49:53;;;;;;;11.60;8.93;;;;;;;;;;4993859;28;20050;-74
2023/10/13 17:52:19;;;;;;;11.57;8.93;;;;;;;;;;4993482;28;20033;-73
2023/10/13 17:54:47;;;;;;;11.55;9.50;;;;;;;;;;4986030;28;20381;-74
2023/10/13 17:57:16;;;;;;;10.85;9.70;;;;;;;;;;4996824;28;20030;-75
2023/10/13 17:59:44;;;;;;;14.02;9.60;;;;;;;;;;4990086;28;20038;-74
2023/10/13 18:02:11;;;;;;;10.40;9.50;;;;;;;;;;5000694;28;20189;-75
2023/10/13 18:04:38;;;;;;;10.68;9.68;;;;;;;;;;4997158;28;20045;-76
2023/10/13 18:07:05;;;;;;;10.65;9.73;;;;;;;;;;4996766;28;20046;-76
2023/10/13 18:09:30;;;;;;;17.83;9.73;;;;;;;;;;4995895;28;20045;-76
2023/10/13 18:11:56;;;;;;;13.27;9.77;;;;;;;;;;4994705;28;20044;-75
2023/10/13 18:14:23;;;;;;;16.63;9.63;;;;;;;;;;4997098;28;20048;-75
2023/10/13 18:16:50;;;;;;;10.13;9.10;;;;;;;;;;4991720;28;20098;-75
2023/10/13 18:19:20;;;;;;;12.25;9.20;;;;;;;;;;5000583;28;20856;-79
2023/10/13 18:21:46;;;;;;;12.43;9.80;;;;;;;;;;5002520;28;20086;-74
2023/10/13 18:24:12;;;;;;;10.68;9.70;;;;;;;;;;4993036;28;20470;-75
2023/10/13 18:26:38;;;;;;;11.38;9.95;;;;;;;;;;4999835;28;20034;-75